createdAt,value
2023-02-09T00:01:21.749Z,97.30
2023-02-09T00:03:48.657Z,97.10
2023-02-09T00:06:18.308Z,97.10
2023-02-09T00:08:45.524Z,96.60
2023-02-09T00:11:46.753Z,96.90
2023-02-09T00:14:16.470Z,96.90
2023-02-09T00:16:43.634Z,96.90
2023-02-09T00:19:11.855Z,96.50
2023-02-09T00:21:39.346Z,97.40
2023-02-09T00:24:07.513Z,97.20
2023-02-09T00:26:34.472Z,97.30
2023-02-09T00:29:01.350Z,98.10
2023-02-09T00:31:28.244Z,97.30
2023-02-09T00:33:55.263Z,97.70
2023-02-09T00:36:22.167Z,97.20
2023-02-09T00:38:49.054Z,97.60
2023-02-09T00:41:16.884Z,97.70
2023-02-09T00:43:44.236Z,97.20
2023-02-09T00:46:11.134Z,97.50
2023-02-09T00:48:38.052Z,97.50
2023-02-09T00:51:05.369Z,97.50
2023-02-09T00:53:32.176Z,97.90
2023-02-09T00:56:00.016Z,98.80
2023-02-09T00:58:26.933Z,98.40
2023-02-09T01:00:53.853Z,98.00
2023-02-09T01:03:20.856Z,98.20
2023-02-09T01:05:47.650Z,98.20
2023-02-09T01:08:14.474Z,98.10
2023-02-09T01:10:41.403Z,98.60
2023-02-09T01:13:08.388Z,98.80
2023-02-09T01:15:35.506Z,98.80
2023-02-09T01:18:02.462Z,99.00
2023-02-09T01:20:29.435Z,99.40
2023-02-09T01:22:56.258Z,99.00
2023-02-09T01:25:23.505Z,99.90
2023-02-09T01:27:50.497Z,99.10
2023-02-09T01:30:17.548Z,99.00
2023-02-09T01:32:44.815Z,99.30
2023-02-09T01:35:11.756Z,99.60
2023-02-09T01:37:38.903Z,99.40
2023-02-09T01:40:06.738Z,99.60
2023-02-09T01:42:33.978Z,99.50
2023-02-09T01:45:28.653Z,99.80
2023-02-09T01:48:02.127Z,99.90
2023-02-09T01:50:33.589Z,99.90
2023-02-09T01:53:01.174Z,99.90
2023-02-09T01:55:32.442Z,99.90
2023-02-09T01:58:09.198Z,99.90
2023-02-09T02:00:36.024Z,99.90
2023-02-09T02:03:07.493Z,99.90
2023-02-09T02:05:37.125Z,99.90
2023-02-09T02:08:19.114Z,99.90
2023-02-09T02:10:46.312Z,99.90
2023-02-09T02:13:13.509Z,99.90
2023-02-09T02:15:55.586Z,99.90
2023-02-09T02:18:40.408Z,99.90
2023-02-09T02:21:10.301Z,99.90
2023-02-09T02:24:12.286Z,99.90
2023-02-09T02:26:44.703Z,99.90
2023-02-09T02:29:33.421Z,99.90
2023-02-09T02:32:18.472Z,99.90
2023-02-09T02:34:58.881Z,99.90
2023-02-09T02:37:43.961Z,99.90
2023-02-09T02:40:22.747Z,99.90
2023-02-09T02:42:58.114Z,99.90
2023-02-09T02:45:29.205Z,99.90
2023-02-09T02:48:41.725Z,99.90
2023-02-09T02:51:13.228Z,99.90
2023-02-09T02:53:45.199Z,99.90
2023-02-09T02:56:20.161Z,99.90
2023-02-09T02:58:49.315Z,99.90
2023-02-09T03:01:21.327Z,99.90
2023-02-09T03:03:50.680Z,99.90
2023-02-09T03:06:18.578Z,99.90
2023-02-09T03:08:49.245Z,99.90
2023-02-09T03:11:18.376Z,99.90
2023-02-09T03:13:51.365Z,99.90
2023-02-09T03:16:21.524Z,99.90
2023-02-09T03:18:57.466Z,99.90
2023-02-09T03:21:27.047Z,99.90
2023-02-09T03:24:05.174Z,99.90
2023-02-09T03:26:47.837Z,99.90
2023-02-09T03:29:16.970Z,99.90
2023-02-09T03:31:44.968Z,99.90
2023-02-09T03:34:12.036Z,99.90
2023-02-09T03:36:40.096Z,99.90
2023-02-09T03:39:06.981Z,99.90
2023-02-09T03:41:34.341Z,99.90
2023-02-09T03:44:19.618Z,99.90
2023-02-09T03:46:46.525Z,99.90
2023-02-09T03:49:16.462Z,99.90
2023-02-09T03:51:43.325Z,99.90
2023-02-09T03:54:10.296Z,99.90
2023-02-09T03:56:40.008Z,99.90
2023-02-09T03:59:06.869Z,99.90
2023-02-09T04:01:34.304Z,99.90
2023-02-09T04:04:04.807Z,99.90
2023-02-09T04:06:33.328Z,99.90
2023-02-09T04:09:00.423Z,99.90
2023-02-09T04:11:27.321Z,99.90
2023-02-09T04:13:54.210Z,99.90
2023-02-09T04:16:21.460Z,99.90
2023-02-09T04:18:48.379Z,99.90
2023-02-09T04:21:15.336Z,99.90
2023-02-09T04:23:42.469Z,99.90
2023-02-09T04:26:09.642Z,99.90
2023-02-09T04:28:36.491Z,99.90
2023-02-09T04:31:03.507Z,99.90
2023-02-09T04:33:30.663Z,99.90
2023-02-09T04:35:57.857Z,99.90
2023-02-09T04:38:24.860Z,99.90
2023-02-09T04:40:53.225Z,99.90
2023-02-09T04:43:21.072Z,99.90
2023-02-09T04:45:48.188Z,99.90
2023-02-09T04:48:18.100Z,99.90
2023-02-09T04:50:45.276Z,99.90
2023-02-09T04:53:13.095Z,99.90
2023-02-09T04:55:41.142Z,99.90
2023-02-09T04:58:28.196Z,99.90
2023-02-09T05:00:55.999Z,99.90
2023-02-09T05:03:26.032Z,99.90
2023-02-09T05:06:02.592Z,99.90
2023-02-09T05:08:29.681Z,99.90
2023-02-09T05:10:57.130Z,99.90
2023-02-09T05:13:25.441Z,99.90
2023-02-09T05:15:52.958Z,99.90
2023-02-09T05:18:20.288Z,99.90
2023-02-09T05:20:48.140Z,99.90
2023-02-09T05:23:15.477Z,99.90
2023-02-09T05:25:42.605Z,99.90
2023-02-09T05:28:09.707Z,99.90
2023-02-09T05:30:37.619Z,99.90
2023-02-09T05:33:04.719Z,99.90
2023-02-09T05:35:31.745Z,99.90
2023-02-09T05:37:58.583Z,99.90
2023-02-09T05:40:25.424Z,99.90
2023-02-09T05:42:52.338Z,99.90
2023-02-09T05:45:19.341Z,99.90
2023-02-09T05:47:46.154Z,99.90
2023-02-09T05:50:13.047Z,99.90
2023-02-09T05:52:39.844Z,99.90
2023-02-09T05:55:07.070Z,99.90
2023-02-09T05:57:34.412Z,99.90
2023-02-09T06:00:01.278Z,99.90
2023-02-09T06:02:28.167Z,99.90
2023-02-09T06:04:55.052Z,99.90
2023-02-09T06:07:21.894Z,99.90
2023-02-09T06:09:48.743Z,99.90
2023-02-09T06:12:15.580Z,99.90
2023-02-09T06:14:42.432Z,99.90
2023-02-09T06:17:10.742Z,99.90
2023-02-09T06:19:37.774Z,99.90
2023-02-09T06:22:04.689Z,99.90
2023-02-09T06:24:31.494Z,99.90
2023-02-09T06:26:58.369Z,99.90
2023-02-09T06:29:25.280Z,99.90
2023-02-09T06:31:52.819Z,99.90
2023-02-09T06:34:19.749Z,99.90
2023-02-09T06:36:46.551Z,99.90
2023-02-09T06:39:13.347Z,99.90
2023-02-09T06:41:40.503Z,99.90
2023-02-09T06:44:07.320Z,99.90
2023-02-09T06:46:34.260Z,99.90
2023-02-09T06:49:01.184Z,99.40
2023-02-09T06:51:28.207Z,99.00
2023-02-09T06:53:55.079Z,99.90
2023-02-09T06:56:22.305Z,99.90
2023-02-09T06:58:49.126Z,99.90
2023-02-09T07:01:16.176Z,99.90
2023-02-09T07:03:43.796Z,99.90
2023-02-09T07:06:16.814Z,97.10
2023-02-09T07:08:44.491Z,94.70
2023-02-09T07:11:14.155Z,93.80
2023-02-09T07:13:41.169Z,94.70
2023-02-09T07:16:10.253Z,96.10
2023-02-09T07:18:37.653Z,96.10
2023-02-09T07:21:08.658Z,94.70
2023-02-09T07:23:36.143Z,93.90
2023-02-09T07:26:05.165Z,93.60
2023-02-09T07:28:32.853Z,92.90
2023-02-09T07:31:08.219Z,91.70
2023-02-09T07:33:36.474Z,92.30
2023-02-09T07:36:05.265Z,91.20
2023-02-09T07:38:32.358Z,91.90
2023-02-09T07:41:00.802Z,91.70
2023-02-09T07:43:27.672Z,90.30
2023-02-09T07:46:03.512Z,90.40
2023-02-09T07:48:31.478Z,83.60
2023-02-09T07:50:58.757Z,82.40
2023-02-09T07:53:25.783Z,82.10
2023-02-09T07:55:52.995Z,82.40
2023-02-09T07:58:20.014Z,80.90
2023-02-09T08:00:48.472Z,80.90
2023-02-09T08:03:17.522Z,79.70
2023-02-09T08:06:08.934Z,83.10
2023-02-09T08:08:35.866Z,80.80
2023-02-09T08:11:04.318Z,80.30
2023-02-09T08:13:38.077Z,81.70
2023-02-09T08:16:08.006Z,79.90
2023-02-09T08:18:43.151Z,82.40
2023-02-09T08:21:13.952Z,83.90
2023-02-09T08:23:42.388Z,87.20
2023-02-09T08:26:11.854Z,83.90
2023-02-09T08:28:44.887Z,78.00
2023-02-09T08:31:14.249Z,76.70
2023-02-09T08:33:41.885Z,75.40
2023-02-09T08:36:11.852Z,72.30
2023-02-09T08:38:38.776Z,71.70
2023-02-09T08:41:07.351Z,70.20
2023-02-09T08:43:34.991Z,69.30
2023-02-09T08:46:06.863Z,68.90
2023-02-09T08:48:35.903Z,68.10
2023-02-09T08:51:03.478Z,68.60
2023-02-09T08:53:30.398Z,70.30
2023-02-09T08:55:57.581Z,71.20
2023-02-09T08:58:25.651Z,73.30
2023-02-09T09:01:00.528Z,70.00
2023-02-09T09:03:31.386Z,65.20
2023-02-09T09:06:00.088Z,65.70
2023-02-09T09:10:54.500Z,66.10
2023-02-09T09:13:21.720Z,68.30
2023-02-09T09:15:49.478Z,68.90
2023-02-09T09:18:16.901Z,65.80
2023-02-09T09:20:43.728Z,68.10
2023-02-09T09:23:11.601Z,70.60
2023-02-09T09:25:40.045Z,71.40
2023-02-09T09:28:07.474Z,67.80
2023-02-09T09:30:34.326Z,70.40
2023-02-09T09:33:01.385Z,67.80
2023-02-09T09:35:28.543Z,70.20
2023-02-09T09:37:58.782Z,70.50
2023-02-09T09:40:29.740Z,71.00
2023-02-09T09:43:00.896Z,70.60
2023-02-09T09:45:30.307Z,69.20
2023-02-09T09:47:57.528Z,69.70
2023-02-09T09:50:41.390Z,72.20
2023-02-09T09:53:21.062Z,72.70
2023-02-09T09:55:49.700Z,69.20
2023-02-09T09:58:19.125Z,69.90
2023-02-09T10:00:46.343Z,68.20
2023-02-09T10:03:18.423Z,69.40
2023-02-09T10:05:49.535Z,70.80
2023-02-09T10:08:25.669Z,73.10
2023-02-09T10:11:05.216Z,70.30
2023-02-09T10:13:49.349Z,67.60
2023-02-09T10:16:30.563Z,64.70
2023-02-09T10:19:21.142Z,65.10
2023-02-09T10:21:51.796Z,66.00
2023-02-09T10:24:30.578Z,66.20
2023-02-09T10:27:23.729Z,65.80
2023-02-09T10:29:50.799Z,64.80
2023-02-09T10:32:20.970Z,64.30
2023-02-09T10:34:54.364Z,66.70
2023-02-09T10:37:36.002Z,69.00
2023-02-09T10:40:19.109Z,66.30
2023-02-09T10:43:02.970Z,64.50
2023-02-09T10:45:33.607Z,67.40
2023-02-09T10:48:08.231Z,66.60
2023-02-09T10:50:47.705Z,62.70
2023-02-09T10:53:39.190Z,61.30
2023-02-09T10:56:22.664Z,60.70
2023-02-09T10:59:13.817Z,63.40
2023-02-09T11:01:43.955Z,62.80
2023-02-09T11:04:16.541Z,61.90
2023-02-09T11:07:14.953Z,59.60
2023-02-09T11:09:51.345Z,62.50
2023-02-09T11:12:22.782Z,65.80
2023-02-09T11:14:49.815Z,64.50
2023-02-09T11:17:40.169Z,64.10
2023-02-09T11:20:21.986Z,61.60
2023-02-09T11:23:12.455Z,61.10
2023-02-09T11:25:50.226Z,62.10
2023-02-09T11:28:17.402Z,65.50
2023-02-09T11:31:14.749Z,65.20
2023-02-09T11:34:06.014Z,66.40
2023-02-09T11:36:56.885Z,67.20
2023-02-09T11:39:48.729Z,67.50
2023-02-09T11:42:43.104Z,65.80
2023-02-09T11:45:14.198Z,62.40
2023-02-09T11:48:18.941Z,62.60
2023-02-09T11:51:02.611Z,63.10
2023-02-09T11:53:39.905Z,61.00
2023-02-09T11:56:11.790Z,59.10
2023-02-09T11:58:47.454Z,60.10
2023-02-09T12:01:32.291Z,61.20
2023-02-09T12:04:21.404Z,61.80
2023-02-09T12:06:55.914Z,66.40
2023-02-09T12:09:28.456Z,67.30
2023-02-09T12:11:59.931Z,65.00
2023-02-09T12:14:29.466Z,65.10
2023-02-09T12:17:22.523Z,65.50
2023-02-09T12:20:00.421Z,65.60
2023-02-09T12:22:36.143Z,68.10
2023-02-09T12:25:12.049Z,69.20
2023-02-09T12:27:44.275Z,69.10
2023-02-09T12:30:40.223Z,70.70
2023-02-09T12:33:20.188Z,72.40
2023-02-09T12:36:08.438Z,71.60
2023-02-09T12:39:13.829Z,71.90
2023-02-09T12:41:41.263Z,71.70
2023-02-09T12:44:10.903Z,69.20
2023-02-09T12:46:53.101Z,69.20
2023-02-09T12:49:29.129Z,66.80
2023-02-09T12:52:02.182Z,66.00
2023-02-09T12:54:44.065Z,66.20
2023-02-09T12:57:17.263Z,65.80
2023-02-09T12:59:50.561Z,64.30
2023-02-09T13:02:50.682Z,65.30
2023-02-09T13:05:30.151Z,64.30
2023-02-09T13:08:11.961Z,65.10
2023-02-09T13:10:43.130Z,65.50
2023-02-09T13:13:12.808Z,65.40
2023-02-09T13:15:55.044Z,65.10
2023-02-09T13:18:37.097Z,65.00
2023-02-09T13:21:47.201Z,68.50
2023-02-09T13:24:18.397Z,68.40
2023-02-09T13:26:58.844Z,69.30
2023-02-09T13:29:31.065Z,69.60
2023-02-09T13:32:03.861Z,67.80
2023-02-09T13:34:36.408Z,68.00
2023-02-09T13:37:25.299Z,68.00
2023-02-09T13:40:00.872Z,68.20
2023-02-09T13:42:35.108Z,68.60
2023-02-09T13:45:02.177Z,67.50
2023-02-09T13:47:29.541Z,67.60
2023-02-09T13:50:11.403Z,69.80
2023-02-09T13:52:39.497Z,69.90
2023-02-09T13:55:18.046Z,70.10
2023-02-09T13:57:50.702Z,70.10
2023-02-09T14:00:28.115Z,72.20
2023-02-09T14:03:01.765Z,72.10
2023-02-09T14:05:40.994Z,72.00
2023-02-09T14:08:09.434Z,73.00
2023-02-09T14:10:37.023Z,73.00
2023-02-09T14:13:24.456Z,73.60
2023-02-09T14:16:07.893Z,74.60
2023-02-09T14:18:47.225Z,73.00
2023-02-09T14:21:20.109Z,73.10
2023-02-09T14:23:56.276Z,73.50
2023-02-09T14:26:27.104Z,73.30
2023-02-09T14:29:11.689Z,73.10
2023-02-09T14:31:44.434Z,73.50
2023-02-09T14:34:44.153Z,72.80
2023-02-09T14:37:13.418Z,72.80
2023-02-09T14:40:16.128Z,73.90
2023-02-09T14:43:11.497Z,75.20
2023-02-09T14:45:57.370Z,75.30
2023-02-09T14:48:29.494Z,75.00
2023-02-09T14:50:59.209Z,76.10
2023-02-09T14:53:31.339Z,77.40
2023-02-09T14:55:58.936Z,77.30
2023-02-09T14:58:29.914Z,77.30
2023-02-09T15:01:02.817Z,78.00
2023-02-09T15:03:29.723Z,78.50
2023-02-09T15:06:00.299Z,78.60
2023-02-09T15:08:30.422Z,79.00
2023-02-09T15:11:02.917Z,79.30
2023-02-09T15:13:31.325Z,80.00
2023-02-09T15:15:58.226Z,81.10
2023-02-09T15:18:26.812Z,81.80
2023-02-09T15:20:53.887Z,82.50
2023-02-09T15:23:20.763Z,83.00
2023-02-09T15:25:48.152Z,83.40
2023-02-09T15:28:28.882Z,84.30
2023-02-09T15:30:56.360Z,85.30
2023-02-09T15:33:23.470Z,85.60
2023-02-09T15:35:51.321Z,86.00
2023-02-09T15:38:18.690Z,86.30
2023-02-09T15:41:06.761Z,87.10
2023-02-09T15:43:52.301Z,87.60
2023-02-09T15:46:22.372Z,88.10
2023-02-09T15:48:49.375Z,88.70
2023-02-09T15:51:17.248Z,89.10
2023-02-09T15:53:45.271Z,89.90
2023-02-09T15:56:14.060Z,90.00
2023-02-09T15:58:44.362Z,90.70
2023-02-09T16:01:16.823Z,90.10
2023-02-09T16:03:44.535Z,90.30
2023-02-09T16:06:21.887Z,90.60
2023-02-09T16:08:50.301Z,90.80
2023-02-09T16:11:27.401Z,90.90
2023-02-09T16:13:54.916Z,91.20
2023-02-09T16:16:24.752Z,91.20
2023-02-09T16:18:51.993Z,91.20
2023-02-09T16:21:28.927Z,91.50
2023-02-09T16:24:00.734Z,91.80
2023-02-09T16:26:29.802Z,92.50
2023-02-09T16:28:57.165Z,92.10
2023-02-09T16:31:25.424Z,92.30
2023-02-09T16:33:52.635Z,92.00
2023-02-09T16:36:24.520Z,92.20
2023-02-09T16:38:51.745Z,92.40
2023-02-09T16:41:37.653Z,92.20
2023-02-09T16:44:33.881Z,92.50
2023-02-09T16:47:01.787Z,92.70
2023-02-09T16:49:33.265Z,92.70
2023-02-09T16:52:18.834Z,92.90
2023-02-09T16:54:52.216Z,93.10
2023-02-09T16:57:23.292Z,93.30
2023-02-09T16:59:51.571Z,93.20
2023-02-09T17:02:33.325Z,93.10
2023-02-09T17:05:02.165Z,93.10
2023-02-09T17:07:34.252Z,93.20
2023-02-09T17:10:20.988Z,93.40
2023-02-09T17:12:48.031Z,93.40
2023-02-09T17:15:29.503Z,93.40
2023-02-09T17:18:03.614Z,93.60
2023-02-09T17:20:36.355Z,93.50
2023-02-09T17:23:03.979Z,93.50
2023-02-09T17:25:31.163Z,93.80
2023-02-09T17:27:58.032Z,93.60
2023-02-09T17:30:24.999Z,93.40
2023-02-09T17:33:01.425Z,93.70
2023-02-09T17:35:58.024Z,93.40
2023-02-09T17:38:22.767Z,93.30
2023-02-09T17:40:50.997Z,92.70
2023-02-09T17:43:18.016Z,93.10
2023-02-09T17:45:49.373Z,93.30
2023-02-09T17:48:18.019Z,93.10
2023-02-09T17:50:46.005Z,93.20
2023-02-09T17:53:22.545Z,93.00
2023-02-09T17:55:49.814Z,92.90
2023-02-09T17:58:17.127Z,92.90
2023-02-09T18:00:45.337Z,92.80
2023-02-09T18:03:18.186Z,92.40
2023-02-09T18:05:49.126Z,92.70
2023-02-09T18:08:15.975Z,92.80
2023-02-09T18:10:42.858Z,92.70
2023-02-09T18:13:16.736Z,92.60
2023-02-09T18:15:44.193Z,92.40
2023-02-09T18:18:14.572Z,92.00
2023-02-09T18:20:42.623Z,91.80
2023-02-09T18:23:15.021Z,92.10
2023-02-09T18:25:42.548Z,92.00
2023-02-09T18:28:09.623Z,91.80
2023-02-09T18:30:38.718Z,91.80
2023-02-09T18:33:07.459Z,91.80
2023-02-09T18:35:35.353Z,91.60
2023-02-09T18:38:04.390Z,91.80
2023-02-09T18:40:34.665Z,91.90
2023-02-09T18:43:02.516Z,92.20
2023-02-09T18:45:32.893Z,92.00
2023-02-09T18:48:00.340Z,92.00
2023-02-09T18:50:30.257Z,92.10
2023-02-09T18:52:59.408Z,92.20
2023-02-09T18:55:31.279Z,92.30
2023-02-09T18:58:06.603Z,92.20
2023-02-09T19:00:34.204Z,92.30
2023-02-09T19:03:01.411Z,91.90
2023-02-09T19:05:30.636Z,92.30
2023-02-09T19:07:59.593Z,92.00
2023-02-09T19:10:27.150Z,92.20
2023-02-09T19:12:54.416Z,92.30
2023-02-09T19:15:25.754Z,92.20
2023-02-09T19:17:53.925Z,92.30
2023-02-09T19:20:23.791Z,92.20
2023-02-09T19:22:54.331Z,92.30
2023-02-09T19:25:24.596Z,92.10
2023-02-09T19:27:52.756Z,92.40
2023-02-09T19:30:24.923Z,92.20
2023-02-09T19:32:53.040Z,92.60
2023-02-09T19:35:23.080Z,92.70
2023-02-09T19:37:54.524Z,92.60
2023-02-09T19:40:28.141Z,92.50
2023-02-09T19:42:56.247Z,92.50
2023-02-09T19:45:23.819Z,92.60
2023-02-09T19:47:50.814Z,92.50
2023-02-09T19:50:18.284Z,92.70
2023-02-09T19:52:47.565Z,92.40
2023-02-09T19:55:15.429Z,92.40
2023-02-09T19:57:42.841Z,92.40
2023-02-09T20:00:14.840Z,92.50
2023-02-09T20:02:41.893Z,92.40
2023-02-09T20:05:09.403Z,92.60
2023-02-09T20:07:36.315Z,92.40
2023-02-09T20:10:03.852Z,92.50
2023-02-09T20:12:31.482Z,92.70
2023-02-09T20:14:58.434Z,92.80
2023-02-09T20:17:25.470Z,92.30
2023-02-09T20:19:52.305Z,92.40
2023-02-09T20:22:19.408Z,92.40
2023-02-09T20:24:46.242Z,92.40
2023-02-09T20:27:13.509Z,92.70
2023-02-09T20:29:40.383Z,92.70
2023-02-09T20:32:07.517Z,92.90
2023-02-09T20:34:34.399Z,92.50
2023-02-09T20:37:01.276Z,92.70
2023-02-09T20:39:28.179Z,92.60
2023-02-09T20:42:15.616Z,92.40
2023-02-09T20:45:01.598Z,92.50
2023-02-09T20:47:29.980Z,92.30
2023-02-09T20:49:59.982Z,92.30
2023-02-09T20:52:30.766Z,92.40
2023-02-09T20:54:57.776Z,92.30
2023-02-09T20:57:29.521Z,92.20
2023-02-09T21:00:00.498Z,92.30
2023-02-09T21:02:27.753Z,92.30
2023-02-09T21:04:56.572Z,92.20
2023-02-09T21:07:25.662Z,92.40
2023-02-09T21:09:54.899Z,92.60
2023-02-09T21:12:22.440Z,92.50
2023-02-09T21:14:50.847Z,92.80
2023-02-09T21:17:19.663Z,92.70
2023-02-09T21:19:46.786Z,92.90
2023-02-09T21:22:17.115Z,93.00
2023-02-09T21:24:45.093Z,92.60
2023-02-09T21:27:13.124Z,92.70
2023-02-09T21:29:40.460Z,92.60
2023-02-09T21:32:08.036Z,92.90
2023-02-09T21:34:35.890Z,93.20
2023-02-09T21:37:02.832Z,93.00
2023-02-09T21:39:30.169Z,92.80
2023-02-09T21:42:15.381Z,93.10
2023-02-09T21:44:42.384Z,93.20
2023-02-09T21:47:10.559Z,93.30
2023-02-09T21:49:37.464Z,93.20
2023-02-09T21:52:04.433Z,93.30
2023-02-09T21:54:34.392Z,93.30
2023-02-09T21:57:02.280Z,93.40
2023-02-09T21:59:29.879Z,93.40
2023-02-09T22:01:57.117Z,93.20
2023-02-09T22:04:24.284Z,93.30
2023-02-09T22:06:51.278Z,93.60
2023-02-09T22:09:20.217Z,93.70
2023-02-09T22:11:47.591Z,94.00
2023-02-09T22:14:14.470Z,94.20
2023-02-09T22:16:41.459Z,94.00
2023-02-09T22:19:08.515Z,94.00
2023-02-09T22:24:02.624Z,93.60
2023-02-09T22:26:29.629Z,94.50
2023-02-09T22:28:56.435Z,94.50
2023-02-09T22:31:23.329Z,94.20
2023-02-09T22:33:54.418Z,94.60
2023-02-09T22:36:23.373Z,94.00
2023-02-09T22:38:50.926Z,93.70
2023-02-09T22:41:23.608Z,94.20
2023-02-09T22:43:58.991Z,94.50
2023-02-09T22:46:29.478Z,94.50
2023-02-09T22:48:58.547Z,94.90
2023-02-09T22:51:28.640Z,94.90
2023-02-09T22:53:56.467Z,94.50
2023-02-09T22:56:23.964Z,94.50
2023-02-09T22:58:53.896Z,94.60
2023-02-09T23:01:21.444Z,94.60
2023-02-09T23:03:48.969Z,94.50
2023-02-09T23:06:24.133Z,94.60
2023-02-09T23:08:55.871Z,94.60
2023-02-09T23:11:23.571Z,94.90
2023-02-09T23:13:57.662Z,94.90
2023-02-09T23:16:34.260Z,95.10
2023-02-09T23:19:03.487Z,94.60
2023-02-09T23:21:36.312Z,94.70
2023-02-09T23:24:03.796Z,94.70
2023-02-09T23:26:30.898Z,94.70
2023-02-09T23:28:59.862Z,94.80
2023-02-09T23:31:27.379Z,94.70
2023-02-09T23:33:54.757Z,94.80
2023-02-09T23:36:25.218Z,94.60
2023-02-09T23:38:56.922Z,94.50
2023-02-09T23:41:24.828Z,94.80
2023-02-09T23:43:52.205Z,94.90
2023-02-09T23:46:21.874Z,94.90
2023-02-09T23:48:49.506Z,95.10
2023-02-09T23:51:21.776Z,95.20
2023-02-09T23:53:48.881Z,95.40
2023-02-09T23:56:17.554Z,95.30
2023-02-09T23:58:46.805Z,95.10
